Latest Weather Observations for Woolshed

IDQ60801

Issued at 8:22 pm EST Sunday 16 December 2018 (issued every 10 minutes, with the page automatically refreshed every 10 minutes)

About weather observations | Map of weather stations | Latest weather observations for QLD | Other Formats
Station Details ID: 033307 Name: WOOLSHED Lat: -19.42 Lon: 146.54 Height: 556.04 m
Data from the previous 72 hours. | See also: Recent months at Woolshed
Date/Time
EST
Temp
°C
App
Temp
°C
Dew
Point
°C
Rel
Hum
%
Delta-T
°C
Wind Press
QNH
hPa
Press
MSL
hPa
Rain since
9am
mm
Dir  Spd
km/h
Gust
km/h
Spd
kts
Gust
kts
16/08:00pm 22.4 23.5 20.5 89 1.3 SSW 15 24 8 13 1006.4 1002.7 2.2
16/07:30pm 22.8 24.4 20.7 88 1.4 SSW 13 24 7 13 1006.3 1002.6 2.2
16/07:00pm 23.2 25.5 20.7 86 1.7 SSW 9 19 5 10 1006.0 1002.3 2.2
16/06:30pm 23.8 25.4 20.7 83 2.1 SSW 13 30 7 16 1005.7 1002.0 2.2
16/06:00pm 24.2 25.1 20.9 82 2.2 SSW 17 32 9 17 1005.1 1001.3 2.2
16/05:30pm 24.9 25.7 20.6 77 2.9 SSW 17 32 9 17 1004.6 1000.9 2.2
16/05:00pm 25.7 26.9 20.7 74 3.4 SW 15 28 8 15 1004.4 1000.7 2.2
16/04:30pm 25.4 26.2 20.6 75 3.2 SSW 17 30 9 16 1004.2 1000.5 2.2
16/04:00pm 25.4 26.7 21.7 80 2.5 SW 17 33 9 18 1004.3 1000.6 2.2
16/03:30pm 25.1 26.1 21.0 78 2.8 SSW 17 41 9 22 1004.5 1000.8 2.2
16/03:00pm 24.3 25.2 20.8 81 2.3 SW 17 37 9 20 1004.8 1001.0 2.2
16/02:30pm 25.0 26.0 21.1 79 2.6 SSW 17 30 9 16 1005.1 1001.3 2.2
16/02:00pm 24.9 25.9 21.8 83 2.1 SW 19 39 10 21 1005.3 1001.5 2.2
16/01:30pm 24.4 25.6 22.1 87 1.6 SW 19 37 10 20 1005.4 1001.6 2.2
16/01:00pm 23.7 24.9 22.5 93 0.8 SSW 20 37 11 20 1005.9 1002.2 2.2
16/12:30pm 22.6 23.3 21.6 94 0.7 SSW 20 41 11 22 1006.3 1002.6 2.2
16/12:00pm 22.3 23.3 21.8 97 0.3 SSW 19 35 10 19 1006.8 1003.0 2.2
16/11:30am 22.1 23.5 21.8 98 0.2 SSW 17 26 9 14 1006.8 1003.0 2.0
16/11:00am 21.9 23.6 21.6 98 0.2 SSW 15 28 8 15 1007.1 1003.4 1.6
16/10:30am 21.6 23.1 21.3 98 0.2 SSW 15 24 8 13 1007.5 1003.8 1.0
16/10:00am 21.3 23.1 21.1 99 0.1 SSW 13 26 7 14 1007.6 1003.9 0.8
16/09:30am 21.3 23.4 21.0 98 0.2 SSW 11 24 6 13 1007.7 1004.0 0.4
16/09:00am 21.4 24.3 21.1 98 0.2 SW 7 13 4 7 1008.1 1004.4 134.4
16/08:30am 22.5 26.4 22.5 100 0.0 SSW 6 9 3 5 1008.0 1004.3 132.2
16/08:00am 22.5 26.4 22.5 100 0.0 S 6 13 3 7 1007.8 1004.1 130.0
16/07:30am 22.4 26.0 22.4 100 0.0 SSE 7 11 4 6 1007.4 1003.7 127.0
16/07:00am 22.5 26.2 22.5 100 0.0 ESE 7 20 4 11 1007.6 1003.9 120.0
16/06:30am 22.3 25.9 22.3 100 0.0 SSE 7 13 4 7 1007.0 1003.2 115.6
16/06:00am 22.3 25.9 22.3 100 0.0 SE 7 17 4 9 1006.1 1002.4 115.2
16/05:30am 22.4 24.9 22.4 100 0.0 ESE 13 26 7 14 1005.9 1002.2 114.8
16/05:00am 22.3 24.7 22.3 100 0.0 ESE 13 26 7 14 1005.3 1001.5 114.8
16/04:30am 22.4 25.3 22.4 100 0.0 ESE 11 24 6 13 1004.6 1000.9 114.8
16/04:00am 22.4 26.0 22.4 100 0.0 ESE 7 19 4 10 1004.9 1001.1 113.8
16/03:30am 22.4 26.2 22.4 100 0.0 E 6 13 3 7 1005.6 1001.9 112.8
16/03:00am 22.3 25.9 22.3 100 0.0 ESE 7 15 4 8 1005.4 1001.6 107.6
16/02:30am 22.4 26.2 22.4 100 0.0 ESE 6 11 3 6 1005.4 1001.6 103.8
16/02:00am 22.3 25.9 22.3 100 0.0 SE 7 13 4 7 1005.1 1001.3 101.0
16/01:30am 22.3 26.0 22.3 100 0.0 ESE 6 11 3 6 1005.8 1002.1 98.0
16/01:00am 22.2 25.7 22.2 100 0.0 ESE 7 15 4 8 1006.2 1002.5 93.6
16/12:30am 22.2 25.7 22.2 100 0.0 ESE 7 15 4 8 1006.7 1002.9 88.2
16/12:00am 22.1 25.2 22.1 100 0.0 E 9 15 5 8 1006.9 1003.1 82.4
 
Date/Time
EST
Temp
°C
App
Temp
°C
Dew
Point
°C
Rel
Hum
%
Delta-T
°C
Wind Press
QNH
hPa
Press
MSL
hPa
Rain since
9am
mm
Dir  Spd
km/h
Gust
km/h
Spd
kts
Gust
kts
15/11:30pm 21.9 25.2 21.9 100 0.0 ESE 7 15 4 8 1007.3 1003.6 76.8
15/11:00pm 22.0 25.0 22.0 100 0.0 ESE 9 17 5 9 1007.5 1003.8 73.2
15/10:30pm 22.0 25.6 22.0 100 0.0 ESE 6 9 3 5 1007.8 1004.1 68.6
15/10:00pm 21.9 25.2 21.9 100 0.0 ESE 7 15 4 8 1007.9 1004.2 65.2
15/09:30pm 21.9 25.4 21.9 100 0.0 SE 6 13 3 7 1007.5 1003.8 61.8
15/09:00pm 21.9 25.2 21.9 100 0.0 ESE 7 15 4 8 1007.5 1003.8 53.2
15/08:30pm 22.0 25.6 22.0 100 0.0 E 6 9 3 5 1007.7 1004.0 52.0
15/08:00pm 21.8 25.1 21.8 100 0.0 ESE 7 15 4 8 1007.7 1004.0 50.6
15/07:30pm 21.9 25.1 21.7 99 0.1 ESE 7 13 4 7 1007.7 1004.0 50.2
15/07:00pm 21.9 25.7 21.7 99 0.1 E 4 11 2 6 1007.7 1004.0 49.8
15/06:30pm 21.8 25.9 21.5 98 0.2 ESE 2 6 1 3 1007.7 1004.0 45.6
15/06:00pm 21.6 24.8 21.3 98 0.2 SE 6 13 3 7 1007.3 1003.6 41.0
15/05:30pm 21.7 25.3 21.2 97 0.3 SE 4 9 2 5 1007.3 1003.6 35.6
15/05:00pm 22.3 25.8 21.8 97 0.3 SE 6 11 3 6 1006.9 1003.1 33.8
15/04:30pm 22.4 25.8 21.7 96 0.5 NE 6 9 3 5 1006.8 1003.0 28.0
15/04:00pm 22.9 27.1 21.7 93 0.8 SE 2 6 1 3 1006.8 1003.0 4.0
15/03:30pm 23.4 27.0 22.0 92 0.9 SE 6 13 3 7 1006.8 1003.0 1.2
15/03:00pm 23.4 26.9 21.8 91 1.1 ESE 6 13 3 7 1006.9 1003.1 0.6
15/02:30pm 23.9 27.2 21.8 88 1.4 ESE 7 15 4 8 1007.2 1003.5 0.2
15/02:00pm 24.4 27.1 20.7 80 2.5 ESE 7 13 4 7 1007.5 1003.8 0.2
15/01:30pm 24.1 27.3 21.2 84 1.9 ESE 6 11 3 6 1007.9 1004.2 0.2
15/01:00pm 25.3 29.1 21.6 80 2.5 E 4 7 2 4 1008.1 1004.4 0.0
15/12:30pm 25.6 29.3 21.5 78 2.8 ESE 4 7 2 4 1008.4 1004.7 0.0
15/12:00pm 25.9 29.1 21.3 76 3.1 E 6 11 3 6 1008.8 1005.1 0.0
15/11:30am 26.1 29.3 21.3 75 3.2 ESE 6 9 3 5 1009.0 1005.3 0.0
15/11:00am 25.9 28.8 20.7 73 3.5 ENE 6 9 3 5 1009.4 1005.7 0.0
15/10:30am 26.3 30.3 21.3 74 3.4 E 2 7 1 4 1009.7 1006.0 0.0
15/10:00am 25.4 29.4 21.3 78 2.8 SSE 2 6 1 3 1009.6 1005.9 0.0
15/09:30am 24.6 27.6 21.3 82 2.2 SSW 7 11 4 6 1009.5 1005.8 0.0
15/09:00am 24.5 27.9 21.6 84 2.0 SW 6 9 3 5 1009.9 1006.2 2.4
15/08:30am 23.9 27.2 21.4 86 1.7 SW 6 9 3 5 1010.0 1006.3 2.4
15/08:00am 23.1 26.9 22.4 96 0.5 SSW 6 9 3 5 1009.9 1006.2 2.4
15/07:30am 22.6 27.3 21.9 96 0.5 CALM 0 0 0 0 1010.7 1007.0 2.2
15/07:00am 22.4 27.0 21.7 96 0.5 CALM 0 0 0 0 1010.6 1006.9 2.0
15/06:30am 22.4 27.1 21.9 97 0.3 CALM 0 0 0 0 1010.1 1006.4 2.0
15/06:00am 22.3 26.8 21.6 96 0.5 CALM 0 0 0 0 1009.5 1005.8 2.0
15/05:30am 22.2 26.7 21.5 96 0.5 CALM 0 0 0 0 1009.1 1005.4 2.0
15/05:00am 22.3 26.8 21.6 96 0.5 CALM 0 4 0 2 1008.4 1004.7 2.0
15/04:30am 22.3 26.8 21.5 95 0.5 CALM 0 0 0 0 1008.1 1004.4 2.0
15/04:00am 22.3 26.8 21.6 96 0.5 CALM 0 0 0 0 1007.8 1004.1 1.8
15/03:30am 22.4 27.0 21.7 96 0.5 CALM 0 4 0 2 1007.6 1003.9 1.8
15/03:00am 22.5 26.7 21.7 95 0.5 SSW 2 6 1 3 1007.3 1003.6 1.8
15/02:30am 22.5 25.9 21.7 95 0.5 SSW 6 9 3 5 1007.0 1003.2 1.8
15/02:00am 22.6 26.5 21.8 95 0.5 SW 4 7 2 4 1007.4 1003.7 1.8
15/01:30am 22.7 26.9 21.7 94 0.7 SSW 2 7 1 4 1007.4 1003.7 1.6
15/01:00am 22.7 26.5 21.7 94 0.7 SW 4 6 2 3 1007.6 1003.9 1.6
15/12:30am 22.9 26.8 21.9 94 0.7 W 4 6 2 3 1008.3 1004.6 1.4
15/12:00am 22.9 26.7 21.7 93 0.8 WSW 4 6 2 3 1008.8 1005.1 1.4
 
Date/Time
EST
Temp
°C
App
Temp
°C
Dew
Point
°C
Rel
Hum
%
Delta-T
°C
Wind Press
QNH
hPa
Press
MSL
hPa
Rain since
9am
mm
Dir  Spd
km/h
Gust
km/h
Spd
kts
Gust
kts
14/11:30pm 23.0 27.0 22.0 94 0.7 SW 4 7 2 4 1009.1 1005.4 1.4
14/11:00pm 23.3 27.5 22.5 95 0.5 SW 4 9 2 5 1009.6 1005.9 1.2
14/10:30pm 23.6 27.6 22.8 95 0.5 SW 6 7 3 4 1009.8 1006.1 1.0
14/10:00pm 23.8 28.0 23.1 96 0.5 SW 6 7 3 4 1009.9 1006.2 1.0
14/09:30pm 23.8 28.7 23.0 95 0.6 WSW 2 7 1 4 1009.9 1006.2 0.8
14/09:00pm 23.9 29.0 22.7 93 0.8 CALM 0 0 0 0 1009.9 1006.2 0.0
14/08:30pm 23.7 28.6 22.3 92 1.0 CALM 0 0 0 0 1009.2 1005.5 0.0
14/08:00pm 23.5 28.3 22.1 92 1.0 CALM 0 0 0 0 1008.6 1004.8 0.0
14/07:30pm 23.7 28.6 22.3 92 1.0 CALM 0 0 0 0 1007.9 1004.2 0.0
14/07:00pm 23.7 28.4 22.0 90 1.2 CALM 0 0 0 0 1007.3 1003.6 0.0
14/06:30pm 23.9 28.1 21.8 88 1.4 NNE 2 4 1 2 1007.2 1003.5 0.0
14/06:00pm 24.2 27.5 21.9 87 1.6 NNE 7 13 4 7 1007.1 1003.4 0.0
14/05:30pm 24.5 28.2 22.2 87 1.6 NNE 6 13 3 7 1006.8 1003.0 0.0
14/05:00pm 25.0 28.7 22.3 85 1.9 NNE 6 15 3 8 1006.3 1002.6 0.0
14/04:30pm 25.1 28.2 22.2 84 2.0 NNE 9 17 5 9 1006.0 1002.3 0.0
14/04:00pm 26.3 29.3 22.6 80 2.6 NNE 11 20 6 11 1005.9 1002.2 0.0
14/03:30pm 26.0 28.2 21.2 75 3.2 NNE 11 20 6 11 1005.7 1002.0 0.0
14/03:00pm 26.9 28.9 20.7 69 4.2 NNE 11 20 6 11 1006.1 1002.4 0.0
14/02:30pm 28.7 31.9 22.4 68 4.4 NNE 9 17 5 9 1006.1 1002.4 0.0
14/02:00pm 27.9 30.1 21.2 67 4.6 NNE 11 20 6 11 1006.4 1002.7 0.0
14/01:30pm 27.4 29.7 21.4 70 4.1 NNE 11 19 6 10 1007.0 1003.2 0.0
14/01:00pm 28.0 30.6 22.0 70 4.1 NNE 11 19 6 10 1007.4 1003.7 0.0
14/12:30pm 28.2 31.0 21.5 67 4.6 NE 9 13 5 7 1007.9 1004.2 0.0
14/12:00pm 28.4 32.0 22.4 70 4.1 NE 7 13 4 7 1008.3 1004.6 0.0
14/11:30am 28.3 32.0 22.5 71 4.0 NNE 7 11 4 6 1008.4 1004.7 0.0
14/11:00am 27.3 30.7 21.6 71 3.9 NNE 6 11 3 6 1008.9 1005.2 0.0
14/10:30am 26.0 28.9 19.9 69 4.0 NNE 4 9 2 5 1009.1 1005.4 0.0
14/10:00am 25.8 28.6 20.8 74 3.4 NNE 7 11 4 6 1009.2 1005.5 0.0
14/09:30am 25.8 28.4 20.1 71 3.8 NNE 6 9 3 5 1009.5 1005.8 0.0
14/09:00am 24.8 27.6 19.6 73 3.4 NNE 4 9 2 5 1009.3 1005.6 35.6
14/08:30am 24.1 26.2 19.4 75 3.1 NE 7 11 4 6 1009.1 1005.4 35.4
14/08:00am 22.9 25.2 19.5 81 2.2 NE 6 9 3 5 1009.1 1005.4 35.4
14/07:30am 22.7 25.6 19.9 84 1.8 NNE 4 6 2 3 1009.3 1005.6 35.4
14/07:00am 22.1 25.4 20.0 88 1.4 N 2 6 1 3 1008.9 1005.2 35.4
14/06:30am 20.5 24.1 19.8 96 0.5 CALM 0 0 0 0 1008.4 1004.7 35.4
14/06:00am 19.9 23.3 19.4 97 0.3 CALM 0 0 0 0 1008.0 1004.3 35.4
14/05:30am 19.8 23.2 19.3 97 0.3 CALM 0 0 0 0 1007.8 1004.1 35.4
14/05:00am 20.1 23.6 19.6 97 0.3 CALM 0 0 0 0 1007.4 1003.7 35.4
14/04:30am 20.1 23.6 19.6 97 0.3 CALM 0 0 0 0 1006.4 1002.7 35.4
14/04:00am 20.1 23.6 19.6 97 0.3 CALM 0 0 0 0 1005.7 1002.0 35.4
14/03:30am 20.3 22.8 19.0 92 0.8 N 4 11 2 6 1005.5 1001.8 35.4
14/03:00am 20.4 22.8 18.7 90 1.1 E 4 9 2 5 1005.3 1001.5 35.4
14/02:30am 21.0 23.4 18.8 87 1.4 SSW 4 7 2 4 1006.0 1002.3 35.4
14/02:00am 21.0 23.2 19.1 89 1.2 SSW 6 11 3 6 1006.9 1003.1 35.4
14/01:30am 20.5 22.7 19.3 93 0.8 WSW 6 9 3 5 1007.8 1004.1 35.4
14/01:00am 20.6 22.7 19.4 93 0.8 WNW 7 13 4 7 1009.4 1005.7 35.4
14/12:30am 20.4 22.8 19.7 96 0.5 NNW 6 11 3 6 1010.0 1006.3 35.4
14/12:00am 20.4 23.2 19.7 96 0.5 WNW 4 6 2 3 1010.7 1007.0 35.4
 
Date/Time
EST
Temp
°C
App
Temp
°C
Dew
Point
°C
Rel
Hum
%
Delta-T
°C
Wind Press
QNH
hPa
Press
MSL
hPa
Rain since
9am
mm
Dir  Spd
km/h
Gust
km/h
Spd
kts
Gust
kts
13/11:30pm 20.3 23.3 20.0 98 0.2 WSW 4 9 2 5 1010.8 1007.1 35.4
13/11:00pm 20.2 23.0 19.7 97 0.3 N 4 11 2 6 1009.5 1005.8 35.4
13/10:30pm 20.3 23.8 19.6 96 0.5 CALM 0 4 0 2 1009.7 1006.0 35.4
13/10:00pm 20.4 22.7 19.4 94 0.6 E 6 11 3 6 1009.3 1005.6 35.4
13/09:30pm 20.4 22.8 19.7 96 0.5 ESE 6 15 3 8 1009.4 1005.7 35.2
13/09:00pm 20.5 23.2 20.2 98 0.2 ESE 6 11 3 6 1009.8 1006.1 35.0
13/08:30pm 20.4 24.2 20.1 98 0.2 CALM 0 7 0 4 1010.6 1006.9 35.0

Other Formats:

Comma delimited format used in spreadsheet applications
http://www.bom.gov.au/fwo/IDQ60801/IDQ60801.95293.axf

JavaScript Object Notation format (JSON) in row-major order
http://www.bom.gov.au/fwo/IDQ60801/IDQ60801.95293.json